sensor_id;sensor_type;location;lat;lon;timestamp;pressure;altitude;pressure_sealevel;temperature;humidity
11345;BME280;5727;42.600;23.028;2022-10-16T00:01:05;94289.81;;;7.70;100.00
11345;BME280;5727;42.600;23.028;2022-10-16T00:03:31;94297.72;;;7.65;100.00
11345;BME280;5727;42.600;23.028;2022-10-16T00:05:59;94296.06;;;7.69;100.00
11345;BME280;5727;42.600;23.028;2022-10-16T00:08:27;94294.53;;;7.68;100.00
11345;BME280;5727;42.600;23.028;2022-10-16T00:10:58;94300.53;;;7.68;100.00
11345;BME280;5727;42.600;23.028;2022-10-16T00:13:25;94302.19;;;7.64;100.00
11345;BME280;5727;42.600;23.028;2022-10-16T00:15:56;94311.03;;;7.63;100.00
11345;BME280;5727;42.600;23.028;2022-10-16T00:18:24;94304.13;;;7.59;100.00
11345;BME280;5727;42.600;23.028;2022-10-16T00:20:51;94309.13;;;7.55;100.00
11345;BME280;5727;42.600;23.028;2022-10-16T00:23:19;94302.84;;;7.56;100.00
11345;BME280;5727;42.600;23.028;2022-10-16T00:25:54;94309.91;;;7.56;100.00
11345;BME280;5727;42.600;23.028;2022-10-16T00:28:22;94312.81;;;7.54;100.00
11345;BME280;5727;42.600;23.028;2022-10-16T00:30:49;94312.63;;;7.51;100.00
11345;BME280;5727;42.600;23.028;2022-10-16T00:33:17;94317.84;;;7.51;100.00
11345;BME280;5727;42.600;23.028;2022-10-16T00:35:44;94321.47;;;7.50;100.00
11345;BME280;5727;42.600;23.028;2022-10-16T00:38:11;94313.78;;;7.45;100.00
11345;BME280;5727;42.600;23.028;2022-10-16T00:40:38;94313.28;;;7.43;100.00
11345;BME280;5727;42.600;23.028;2022-10-16T00:43:12;94318.81;;;7.41;100.00
11345;BME280;5727;42.600;23.028;2022-10-16T00:45:39;94314.94;;;7.38;100.00
11345;BME280;5727;42.600;23.028;2022-10-16T00:48:10;94322.25;;;7.36;100.00
11345;BME280;5727;42.600;23.028;2022-10-16T00:50:40;94320.25;;;7.33;100.00
11345;BME280;5727;42.600;23.028;2022-10-16T00:53:09;94324.19;;;7.31;100.00
11345;BME280;5727;42.600;23.028;2022-10-16T00:55:37;94321.41;;;7.27;100.00
11345;BME280;5727;42.600;23.028;2022-10-16T00:58:04;94313.88;;;7.26;100.00
11345;BME280;5727;42.600;23.028;2022-10-16T01:00:31;94315.13;;;7.28;100.00
11345;BME280;5727;42.600;23.028;2022-10-16T01:03:00;94314.16;;;7.24;100.00
11345;BME280;5727;42.600;23.028;2022-10-16T01:05:32;94310.31;;;7.22;100.00
11345;BME280;5727;42.600;23.028;2022-10-16T01:08:06;94310.56;;;7.20;100.00
11345;BME280;5727;42.600;23.028;2022-10-16T01:10:38;94314.34;;;7.14;100.00
11345;BME280;5727;42.600;23.028;2022-10-16T01:13:07;94320.63;;;7.13;100.00
11345;BME280;5727;42.600;23.028;2022-10-16T01:15:37;94317.22;;;7.13;100.00
11345;BME280;5727;42.600;23.028;2022-10-16T01:18:09;94320.91;;;7.12;100.00
11345;BME280;5727;42.600;23.028;2022-10-16T01:20:42;94314.72;;;7.08;100.00
11345;BME280;5727;42.600;23.028;2022-10-16T01:23:37;94312.91;;;7.08;100.00
11345;BME280;5727;42.600;23.028;2022-10-16T01:26:23;94307.69;;;7.08;100.00
11345;BME280;5727;42.600;23.028;2022-10-16T01:28:59;94299.38;;;7.06;100.00
11345;BME280;5727;42.600;23.028;2022-10-16T01:31:34;94306.22;;;7.02;100.00
11345;BME280;5727;42.600;23.028;2022-10-16T01:34:06;94297.16;;;7.00;100.00
11345;BME280;5727;42.600;23.028;2022-10-16T01:36:39;94301.59;;;6.86;100.00
11345;BME280;5727;42.600;23.028;2022-10-16T01:39:09;94307.94;;;6.80;100.00
11345;BME280;5727;42.600;23.028;2022-10-16T01:41:40;94317.47;;;6.84;100.00
11345;BME280;5727;42.600;23.028;2022-10-16T01:44:11;94318.25;;;6.85;100.00
11345;BME280;5727;42.600;23.028;2022-10-16T01:46:43;94319.34;;;6.84;100.00
11345;BME280;5727;42.600;23.028;2022-10-16T01:49:12;94319.59;;;6.82;100.00
11345;BME280;5727;42.600;23.028;2022-10-16T01:51:40;94331.09;;;6.81;100.00
11345;BME280;5727;42.600;23.028;2022-10-16T01:54:08;94328.00;;;6.79;100.00
11345;BME280;5727;42.600;23.028;2022-10-16T01:56:36;94328.78;;;6.80;100.00
11345;BME280;5727;42.600;23.028;2022-10-16T01:59:06;94341.31;;;6.78;100.00
11345;BME280;5727;42.600;23.028;2022-10-16T02:01:39;94334.06;;;6.75;100.00
11345;BME280;5727;42.600;23.028;2022-10-16T02:04:11;94330.47;;;6.71;100.00
11345;BME280;5727;42.600;23.028;2022-10-16T02:06:40;94342.81;;;6.65;100.00
11345;BME280;5727;42.600;23.028;2022-10-16T02:09:07;94340.28;;;6.60;100.00
11345;BME280;5727;42.600;23.028;2022-10-16T02:11:34;94351.97;;;6.63;100.00
11345;BME280;5727;42.600;23.028;2022-10-16T02:14:04;94356.94;;;6.59;100.00
11345;BME280;5727;42.600;23.028;2022-10-16T02:16:36;94354.94;;;6.56;100.00
11345;BME280;5727;42.600;23.028;2022-10-16T02:19:06;94353.38;;;6.55;100.00
11345;BME280;5727;42.600;23.028;2022-10-16T02:21:38;94356.06;;;6.50;100.00
11345;BME280;5727;42.600;23.028;2022-10-16T02:24:12;94360.22;;;6.51;100.00
11345;BME280;5727;42.600;23.028;2022-10-16T02:26:45;94354.53;;;6.49;100.00
11345;BME280;5727;42.600;23.028;2022-10-16T02:29:16;94359.72;;;6.49;100.00
11345;BME280;5727;42.600;23.028;2022-10-16T02:31:47;94353.75;;;6.48;100.00
11345;BME280;5727;42.600;23.028;2022-10-16T02:34:19;94360.28;;;6.46;100.00
11345;BME280;5727;42.600;23.028;2022-10-16T02:36:48;94356.44;;;6.43;100.00
11345;BME280;5727;42.600;23.028;2022-10-16T02:39:16;94365.28;;;6.42;100.00
11345;BME280;5727;42.600;23.028;2022-10-16T02:41:44;94361.16;;;6.41;100.00
11345;BME280;5727;42.600;23.028;2022-10-16T02:44:11;94366.41;;;6.36;100.00
11345;BME280;5727;42.600;23.028;2022-10-16T02:46:38;94373.19;;;6.37;100.00
11345;BME280;5727;42.600;23.028;2022-10-16T02:49:05;94372.41;;;6.37;100.00
11345;BME280;5727;42.600;23.028;2022-10-16T02:51:33;94368.53;;;6.34;100.00
11345;BME280;5727;42.600;23.028;2022-10-16T02:54:00;94374.00;;;6.33;100.00
11345;BME280;5727;42.600;23.028;2022-10-16T02:56:26;94369.38;;;6.30;100.00
11345;BME280;5727;42.600;23.028;2022-10-16T02:58:53;94366.84;;;6.25;100.00
11345;BME280;5727;42.600;23.028;2022-10-16T03:01:20;94366.06;;;6.24;100.00
11345;BME280;5727;42.600;23.028;2022-10-16T03:03:47;94362.72;;;6.24;100.00
11345;BME280;5727;42.600;23.028;2022-10-16T03:06:13;94361.72;;;6.20;100.00
11345;BME280;5727;42.600;23.028;2022-10-16T03:08:42;94360.44;;;6.17;100.00
11345;BME280;5727;42.600;23.028;2022-10-16T03:11:08;94354.75;;;6.15;100.00
11345;BME280;5727;42.600;23.028;2022-10-16T03:13:35;94355.53;;;6.16;100.00
11345;BME280;5727;42.600;23.028;2022-10-16T03:16:02;94353.97;;;6.15;100.00
11345;BME280;5727;42.600;23.028;2022-10-16T03:18:29;94359.75;;;6.12;100.00
11345;BME280;5727;42.600;23.028;2022-10-16T03:20:55;94357.72;;;6.09;100.00
11345;BME280;5727;42.600;23.028;2022-10-16T03:23:22;94366.28;;;6.09;100.00
11345;BME280;5727;42.600;23.028;2022-10-16T03:25:50;94370.72;;;6.09;100.00
11345;BME280;5727;42.600;23.028;2022-10-16T03:28:17;94368.19;;;6.04;100.00
11345;BME280;5727;42.600;23.028;2022-10-16T03:30:44;94367.38;;;6.03;100.00
11345;BME280;5727;42.600;23.028;2022-10-16T03:33:11;94369.28;;;5.98;100.00
11345;BME280;5727;42.600;23.028;2022-10-16T03:35:38;94369.88;;;5.95;100.00
11345;BME280;5727;42.600;23.028;2022-10-16T03:38:05;94366.97;;;5.96;100.00
11345;BME280;5727;42.600;23.028;2022-10-16T03:40:31;94374.28;;;5.94;100.00
11345;BME280;5727;42.600;23.028;2022-10-16T03:42:59;94369.38;;;5.93;100.00
11345;BME280;5727;42.600;23.028;2022-10-16T03:45:26;94363.38;;;5.92;100.00
11345;BME280;5727;42.600;23.028;2022-10-16T03:47:53;94365.78;;;5.89;100.00
11345;BME280;5727;42.600;23.028;2022-10-16T03:50:20;94371.56;;;5.86;100.00
11345;BME280;5727;42.600;23.028;2022-10-16T03:52:46;94376.47;;;5.82;100.00
11345;BME280;5727;42.600;23.028;2022-10-16T03:55:13;94369.97;;;5.85;100.00
11345;BME280;5727;42.600;23.028;2022-10-16T03:57:40;94378.06;;;5.83;100.00
11345;BME280;5727;42.600;23.028;2022-10-16T04:00:10;94378.06;;;5.83;100.00
11345;BME280;5727;42.600;23.028;2022-10-16T04:02:37;94370.56;;;5.77;100.00
11345;BME280;5727;42.600;23.028;2022-10-16T04:05:04;94372.13;;;5.78;100.00
11345;BME280;5727;42.600;23.028;2022-10-16T04:07:31;94367.97;;;5.77;100.00
11345;BME280;5727;42.600;23.028;2022-10-16T04:09:58;94366.44;;;5.76;100.00
11345;BME280;5727;42.600;23.028;2022-10-16T04:12:25;94370.06;;;5.75;100.00
11345;BME280;5727;42.600;23.028;2022-10-16T04:14:52;94370.06;;;5.75;100.00
11345;BME280;5727;42.600;23.028;2022-10-16T04:17:20;94366.97;;;5.73;100.00
11345;BME280;5727;42.600;23.028;2022-10-16T04:19:47;94366.97;;;5.73;100.00
11345;BME280;5727;42.600;23.028;2022-10-16T04:22:13;94365.44;;;5.72;100.00
11345;BME280;5727;42.600;23.028;2022-10-16T04:24:40;94365.44;;;5.72;100.00
11345;BME280;5727;42.600;23.028;2022-10-16T04:27:07;94366.28;;;5.67;100.00
11345;BME280;5727;42.600;23.028;2022-10-16T04:29:34;94372.81;;;5.65;100.00
11345;BME280;5727;42.600;23.028;2022-10-16T04:32:00;94365.03;;;5.65;100.00
11345;BME280;5727;42.600;23.028;2022-10-16T04:34:28;94370.22;;;5.65;100.00
11345;BME280;5727;42.600;23.028;2022-10-16T04:36:55;94372.84;;;5.59;100.00
11345;BME280;5727;42.600;23.028;2022-10-16T04:39:22;94372.84;;;5.59;100.00
11345;BME280;5727;42.600;23.028;2022-10-16T04:41:49;94384.84;;;5.55;100.00
11345;BME280;5727;42.600;23.028;2022-10-16T04:44:15;94379.22;;;5.48;100.00
11345;BME280;5727;42.600;23.028;2022-10-16T04:46:42;94380.19;;;5.34;100.00
11345;BME280;5727;42.600;23.028;2022-10-16T04:49:09;94387.69;;;5.35;100.00
11345;BME280;5727;42.600;23.028;2022-10-16T04:51:37;94391.00;;;5.41;100.00
11345;BME280;5727;42.600;23.028;2022-10-16T04:54:04;94396.44;;;5.44;100.00
11345;BME280;5727;42.600;23.028;2022-10-16T04:56:31;94405.78;;;5.45;100.00
11345;BME280;5727;42.600;23.028;2022-10-16T04:58:57;94404.72;;;5.46;100.00
11345;BME280;5727;42.600;23.028;2022-10-16T05:01:24;94402.91;;;5.47;100.00
11345;BME280;5727;42.600;23.028;2022-10-16T05:03:51;94399.75;;;5.50;100.00
11345;BME280;5727;42.600;23.028;2022-10-16T05:06:18;94397.41;;;5.48;100.00
11345;BME280;5727;42.600;23.028;2022-10-16T05:08:46;94402.06;;;5.51;100.00
11345;BME280;5727;42.600;23.028;2022-10-16T05:11:12;94397.13;;;5.50;100.00
11345;BME280;5727;42.600;23.028;2022-10-16T05:13:39;94405.41;;;5.57;100.00
11345;BME280;5727;42.600;23.028;2022-10-16T05:16:06;94405.63;;;5.61;100.00
11345;BME280;5727;42.600;23.028;2022-10-16T05:18:33;94414.66;;;5.63;100.00
11345;BME280;5727;42.600;23.028;2022-10-16T05:20:59;94420.56;;;5.69;100.00
11345;BME280;5727;42.600;23.028;2022-10-16T05:23:26;94410.13;;;5.74;100.00
11345;BME280;5727;42.600;23.028;2022-10-16T05:25:55;94415.56;;;5.77;100.00
11345;BME280;5727;42.600;23.028;2022-10-16T05:28:23;94409.03;;;5.80;100.00
11345;BME280;5727;42.600;23.028;2022-10-16T05:30:50;94414.72;;;5.82;100.00
11345;BME280;5727;42.600;23.028;2022-10-16T05:33:19;94419.34;;;5.90;100.00
11345;BME280;5727;42.600;23.028;2022-10-16T05:35:46;94416.69;;;5.95;100.00
11345;BME280;5727;42.600;23.028;2022-10-16T05:38:12;94420.81;;;5.96;100.00
11345;BME280;5727;42.600;23.028;2022-10-16T05:40:39;94429.41;;;5.96;100.00
11345;BME280;5727;42.600;23.028;2022-10-16T05:43:07;94425.97;;;6.01;100.00
11345;BME280;5727;42.600;23.028;2022-10-16T05:45:34;94428.50;;;6.06;100.00
11345;BME280;5727;42.600;23.028;2022-10-16T05:48:01;94432.09;;;6.10;100.00
11345;BME280;5727;42.600;23.028;2022-10-16T05:50:27;94433.88;;;6.14;100.00
11345;BME280;5727;42.600;23.028;2022-10-16T05:52:54;94440.59;;;6.15;100.00
11345;BME280;5727;42.600;23.028;2022-10-16T05:55:21;94429.56;;;6.23;100.00
11345;BME280;5727;42.600;23.028;2022-10-16T05:57:48;94437.53;;;6.32;100.00
11345;BME280;5727;42.600;23.028;2022-10-16T06:00:16;94446.06;;;6.37;100.00
11345;BME280;5727;42.600;23.028;2022-10-16T06:02:42;94451.47;;;6.41;100.00
11345;BME280;5727;42.600;23.028;2022-10-16T06:05:09;94449.00;;;6.49;100.00
11345;BME280;5727;42.600;23.028;2022-10-16T06:07:36;94459.28;;;6.60;100.00
11345;BME280;5727;42.600;23.028;2022-10-16T06:10:04;94460.53;;;6.62;100.00
11345;BME280;5727;42.600;23.028;2022-10-16T06:12:31;94462.53;;;6.70;100.00
11345;BME280;5727;42.600;23.028;2022-10-16T06:14:58;94456.66;;;6.78;100.00
11345;BME280;5727;42.600;23.028;2022-10-16T06:17:26;94471.34;;;6.88;100.00
11345;BME280;5727;42.600;23.028;2022-10-16T06:19:52;94464.75;;;6.95;100.00
11345;BME280;5727;42.600;23.028;2022-10-16T06:22:19;94466.44;;;7.05;100.00
11345;BME280;5727;42.600;23.028;2022-10-16T06:24:46;94472.81;;;7.12;100.00
11345;BME280;5727;42.600;23.028;2022-10-16T06:27:14;94476.81;;;7.23;100.00
11345;BME280;5727;42.600;23.028;2022-10-16T06:29:41;94473.81;;;7.30;100.00
11345;BME280;5727;42.600;23.028;2022-10-16T06:32:08;94473.94;;;7.38;100.00
11345;BME280;5727;42.600;23.028;2022-10-16T06:34:36;94473.84;;;7.43;100.00
11345;BME280;5727;42.600;23.028;2022-10-16T06:37:05;94475.31;;;7.50;100.00
11345;BME280;5727;42.600;23.028;2022-10-16T06:39:32;94475.44;;;7.58;100.00
11345;BME280;5727;42.600;23.028;2022-10-16T06:41:58;94477.56;;;7.70;100.00
11345;BME280;5727;42.600;23.028;2022-10-16T06:44:25;94479.72;;;7.81;100.00
11345;BME280;5727;42.600;23.028;2022-10-16T06:46:52;94483.97;;;7.91;100.00
11345;BME280;5727;42.600;23.028;2022-10-16T06:49:19;94474.28;;;8.05;100.00
11345;BME280;5727;42.600;23.028;2022-10-16T06:51:49;94486.47;;;8.09;100.00
11345;BME280;5727;42.600;23.028;2022-10-16T06:54:16;94486.69;;;8.26;100.00
11345;BME280;5727;42.600;23.028;2022-10-16T06:56:43;94491.59;;;8.42;100.00
11345;BME280;5727;42.600;23.028;2022-10-16T06:59:10;94492.03;;;8.35;100.00
11345;BME280;5727;42.600;23.028;2022-10-16T07:01:36;94491.53;;;8.33;100.00
11345;BME280;5727;42.600;23.028;2022-10-16T07:04:03;94487.84;;;8.34;100.00
11345;BME280;5727;42.600;23.028;2022-10-16T07:06:32;94494.31;;;8.50;100.00
11345;BME280;5727;42.600;23.028;2022-10-16T07:09:04;94495.34;;;8.63;100.00
11345;BME280;5727;42.600;23.028;2022-10-16T07:11:32;94494.56;;;8.76;100.00
11345;BME280;5727;42.600;23.028;2022-10-16T07:13:59;94496.34;;;8.89;100.00
11345;BME280;5727;42.600;23.028;2022-10-16T07:16:27;94504.06;;;8.94;100.00
11345;BME280;5727;42.600;23.028;2022-10-16T07:18:54;94495.41;;;9.07;100.00
11345;BME280;5727;42.600;23.028;2022-10-16T07:21:24;94504.75;;;9.21;100.00
11345;BME280;5727;42.600;23.028;2022-10-16T07:23:52;94490.38;;;9.33;100.00
11345;BME280;5727;42.600;23.028;2022-10-16T07:26:21;94500.47;;;9.48;100.00
11345;BME280;5727;42.600;23.028;2022-10-16T07:28:48;94497.97;;;9.43;100.00
11345;BME280;5727;42.600;23.028;2022-10-16T07:31:17;94505.69;;;9.48;100.00
11345;BME280;5727;42.600;23.028;2022-10-16T07:33:45;94500.47;;;9.70;100.00
11345;BME280;5727;42.600;23.028;2022-10-16T07:36:14;94499.13;;;9.81;100.00
11345;BME280;5727;42.600;23.028;2022-10-16T07:38:41;94498.66;;;9.79;100.00
11345;BME280;5727;42.600;23.028;2022-10-16T07:41:11;94504.59;;;9.71;100.00
11345;BME280;5727;42.600;23.028;2022-10-16T07:43:40;94497.91;;;9.87;100.00
11345;BME280;5727;42.600;23.028;2022-10-16T07:46:06;94503.97;;;9.96;100.00
11345;BME280;5727;42.600;23.028;2022-10-16T07:48:34;94509.72;;;10.06;100.00
11345;BME280;5727;42.600;23.028;2022-10-16T07:51:02;94507.28;;;10.10;100.00
11345;BME280;5727;42.600;23.028;2022-10-16T07:53:30;94508.72;;;10.25;100.00
11345;BME280;5727;42.600;23.028;2022-10-16T07:55:57;94513.66;;;10.26;100.00
11345;BME280;5727;42.600;23.028;2022-10-16T07:58:25;94505.22;;;10.38;100.00
11345;BME280;5727;42.600;23.028;2022-10-16T08:00:53;94506.78;;;10.47;100.00
11345;BME280;5727;42.600;23.028;2022-10-16T08:03:20;94510.84;;;10.70;100.00
11345;BME280;5727;42.600;23.028;2022-10-16T08:05:47;94511.00;;;10.74;100.00
11345;BME280;5727;42.600;23.028;2022-10-16T08:08:14;94514.56;;;10.86;100.00
11345;BME280;5727;42.600;23.028;2022-10-16T08:10:42;94508.25;;;10.96;100.00
11345;BME280;5727;42.600;23.028;2022-10-16T08:13:08;94504.38;;;11.11;100.00
11345;BME280;5727;42.600;23.028;2022-10-16T08:15:35;94496.53;;;11.19;100.00
11345;BME280;5727;42.600;23.028;2022-10-16T08:18:04;94506.56;;;11.34;100.00
11345;BME280;5727;42.600;23.028;2022-10-16T08:20:32;94504.69;;;11.43;100.00
11345;BME280;5727;42.600;23.028;2022-10-16T08:22:59;94508.53;;;11.46;100.00
11345;BME280;5727;42.600;23.028;2022-10-16T08:25:26;94499.72;;;11.59;100.00
11345;BME280;5727;42.600;23.028;2022-10-16T08:27:54;94502.50;;;11.71;100.00
11345;BME280;5727;42.600;23.028;2022-10-16T08:30:22;94510.16;;;11.93;100.00
11345;BME280;5727;42.600;23.028;2022-10-16T08:32:50;94507.38;;;11.98;100.00
11345;BME280;5727;42.600;23.028;2022-10-16T08:35:18;94505.63;;;12.11;100.00
11345;BME280;5727;42.600;23.028;2022-10-16T08:37:44;94510.66;;;12.24;100.00
11345;BME280;5727;42.600;23.028;2022-10-16T08:40:17;94515.56;;;12.34;100.00
11345;BME280;5727;42.600;23.028;2022-10-16T08:43:05;94508.53;;;12.55;100.00
11345;BME280;5727;42.600;23.028;2022-10-16T08:46:02;94512.72;;;12.77;100.00
11345;BME280;5727;42.600;23.028;2022-10-16T08:48:37;94520.97;;;12.96;100.00
11345;BME280;5727;42.600;23.028;2022-10-16T08:51:10;94512.72;;;13.06;100.00
11345;BME280;5727;42.600;23.028;2022-10-16T08:53:42;94523.16;;;13.15;100.00
11345;BME280;5727;42.600;23.028;2022-10-16T08:56:11;94518.94;;;13.22;100.00
11345;BME280;5727;42.600;23.028;2022-10-16T08:58:37;94523.28;;;13.18;100.00
11345;BME280;5727;42.600;23.028;2022-10-16T09:01:11;94527.81;;;13.18;100.00
11345;BME280;5727;42.600;23.028;2022-10-16T09:07:03;94518.59;;;13.44;99.52
11345;BME280;5727;42.600;23.028;2022-10-16T09:09:45;94521.25;;;13.44;97.12
11345;BME280;5727;42.600;23.028;2022-10-16T09:12:20;94526.22;;;13.58;97.79
11345;BME280;5727;42.600;23.028;2022-10-16T09:15:00;94527.16;;;13.74;97.61
11345;BME280;5727;42.600;23.028;2022-10-16T09:17:37;94527.75;;;13.92;95.49
11345;BME280;5727;42.600;23.028;2022-10-16T09:20:27;94525.34;;;13.99;94.68
11345;BME280;5727;42.600;23.028;2022-10-16T09:23:10;94525.38;;;14.11;94.23
11345;BME280;5727;42.600;23.028;2022-10-16T09:25:39;94515.75;;;14.27;93.45
11345;BME280;5727;42.600;23.028;2022-10-16T09:28:08;94517.66;;;14.38;91.57
11345;BME280;5727;42.600;23.028;2022-10-16T09:30:37;94523.91;;;14.46;89.24
11345;BME280;5727;42.600;23.028;2022-10-16T09:33:05;94520.50;;;14.57;87.30
11345;BME280;5727;42.600;23.028;2022-10-16T09:35:36;94525.78;;;14.57;88.20
11345;BME280;5727;42.600;23.028;2022-10-16T09:38:05;94529.06;;;14.66;87.26
11345;BME280;5727;42.600;23.028;2022-10-16T09:40:35;94523.78;;;14.79;86.97
11345;BME280;5727;42.600;23.028;2022-10-16T09:43:15;94528.84;;;14.84;85.14
11345;BME280;5727;42.600;23.028;2022-10-16T09:45:56;94522.34;;;14.93;85.04
11345;BME280;5727;42.600;23.028;2022-10-16T09:48:25;94517.59;;;14.99;83.80
11345;BME280;5727;42.600;23.028;2022-10-16T09:50:56;94519.78;;;14.97;80.55
11345;BME280;5727;42.600;23.028;2022-10-16T09:53:26;94512.56;;;14.94;81.81
11345;BME280;5727;42.600;23.028;2022-10-16T09:56:04;94502.31;;;15.04;83.85
11345;BME280;5727;42.600;23.028;2022-10-16T09:58:32;94498.47;;;15.02;80.15
11345;BME280;5727;42.600;23.028;2022-10-16T10:00:59;94501.06;;;15.14;83.64
11345;BME280;5727;42.600;23.028;2022-10-16T10:03:35;94503.25;;;15.24;79.10
11345;BME280;5727;42.600;23.028;2022-10-16T10:06:14;94502.78;;;15.34;77.55
11345;BME280;5727;42.600;23.028;2022-10-16T10:08:53;94499.03;;;15.35;77.99
11345;BME280;5727;42.600;23.028;2022-10-16T10:14:37;94489.31;;;15.51;72.84
11345;BME280;5727;42.600;23.028;2022-10-16T10:17:12;94498.09;;;15.55;71.08
11345;BME280;5727;42.600;23.028;2022-10-16T10:19:42;94497.28;;;15.67;68.75
11345;BME280;5727;42.600;23.028;2022-10-16T10:22:19;94486.81;;;15.70;63.77
11345;BME280;5727;42.600;23.028;2022-10-16T10:24:57;94489.22;;;15.75;65.62
11345;BME280;5727;42.600;23.028;2022-10-16T10:27:29;94481.91;;;15.84;59.74
11345;BME280;5727;42.600;23.028;2022-10-16T10:30:02;94464.69;;;15.90;60.88
11345;BME280;5727;42.600;23.028;2022-10-16T10:32:39;94464.50;;;15.83;59.52
11345;BME280;5727;42.600;23.028;2022-10-16T10:35:17;94455.72;;;15.95;60.73
11345;BME280;5727;42.600;23.028;2022-10-16T10:38:01;94457.59;;;16.10;60.12
11345;BME280;5727;42.600;23.028;2022-10-16T10:40:40;94455.38;;;16.12;59.79
11345;BME280;5727;42.600;23.028;2022-10-16T10:43:20;94452.59;;;16.20;57.50
11345;BME280;5727;42.600;23.028;2022-10-16T10:45:54;94446.44;;;16.16;57.44
11345;BME280;5727;42.600;23.028;2022-10-16T10:48:43;94443.94;;;16.23;58.21
11345;BME280;5727;42.600;23.028;2022-10-16T10:51:20;94437.91;;;16.23;57.48
11345;BME280;5727;42.600;23.028;2022-10-16T10:53:54;94446.09;;;16.33;54.20
11345;BME280;5727;42.600;23.028;2022-10-16T10:56:41;94443.00;;;16.31;53.10
11345;BME280;5727;42.600;23.028;2022-10-16T10:59:24;94442.16;;;16.27;54.82
11345;BME280;5727;42.600;23.028;2022-10-16T11:01:59;94438.66;;;16.39;54.93
11345;BME280;5727;42.600;23.028;2022-10-16T11:04:53;94433.53;;;16.46;53.94
11345;BME280;5727;42.600;23.028;2022-10-16T11:07:26;94433.66;;;16.50;53.07
11345;BME280;5727;42.600;23.028;2022-10-16T11:09:58;94427.66;;;16.53;53.96
11345;BME280;5727;42.600;23.028;2022-10-16T11:12:32;94426.50;;;16.50;50.61
11345;BME280;5727;42.600;23.028;2022-10-16T11:15:05;94427.47;;;16.45;49.29
11345;BME280;5727;42.600;23.028;2022-10-16T11:17:38;94427.13;;;16.47;50.31
11345;BME280;5727;42.600;23.028;2022-10-16T11:20:13;94422.28;;;16.49;49.63
11345;BME280;5727;42.600;23.028;2022-10-16T11:22:47;94426.97;;;16.56;54.22
11345;BME280;5727;42.600;23.028;2022-10-16T11:25:18;94421.41;;;16.61;52.09
11345;BME280;5727;42.600;23.028;2022-10-16T11:27:51;94429.78;;;16.63;50.70
11345;BME280;5727;42.600;23.028;2022-10-16T11:30:22;94423.47;;;16.67;50.51
11345;BME280;5727;42.600;23.028;2022-10-16T11:32:58;94427.13;;;16.63;48.72
11345;BME280;5727;42.600;23.028;2022-10-16T11:35:37;94434.88;;;16.71;51.30
11345;BME280;5727;42.600;23.028;2022-10-16T11:38:10;94425.97;;;16.79;49.30
11345;BME280;5727;42.600;23.028;2022-10-16T11:40:41;94429.09;;;16.85;51.17
11345;BME280;5727;42.600;23.028;2022-10-16T11:43:14;94435.09;;;16.82;48.96
11345;BME280;5727;42.600;23.028;2022-10-16T11:45:46;94432.47;;;17.01;48.91
11345;BME280;5727;42.600;23.028;2022-10-16T11:48:21;94417.22;;;16.94;45.95
11345;BME280;5727;42.600;23.028;2022-10-16T11:50:51;94425.22;;;16.98;47.19
11345;BME280;5727;42.600;23.028;2022-10-16T11:53:28;94424.25;;;17.06;48.29
11345;BME280;5727;42.600;23.028;2022-10-16T11:56:00;94427.81;;;16.94;45.52
11345;BME280;5727;42.600;23.028;2022-10-16T11:58:31;94428.41;;;16.88;45.20
11345;BME280;5727;42.600;23.028;2022-10-16T12:01:06;94427.41;;;16.92;45.98
11345;BME280;5727;42.600;23.028;2022-10-16T12:03:43;94424.81;;;16.96;47.49
11345;BME280;5727;42.600;23.028;2022-10-16T12:06:22;94422.16;;;16.96;46.47
11345;BME280;5727;42.600;23.028;2022-10-16T12:08:52;94416.22;;;17.60;43.83
11345;BME280;5727;42.600;23.028;2022-10-16T12:11:32;94416.34;;;19.16;41.82
11345;BME280;5727;42.600;23.028;2022-10-16T12:14:20;94411.78;;;20.92;37.19
11345;BME280;5727;42.600;23.028;2022-10-16T12:16:54;94403.72;;;21.67;33.88
11345;BME280;5727;42.600;23.028;2022-10-16T12:19:23;94411.56;;;21.18;33.56
11345;BME280;5727;42.600;23.028;2022-10-16T12:21:51;94411.03;;;21.95;33.48
11345;BME280;5727;42.600;23.028;2022-10-16T12:24:33;94397.56;;;23.15;31.11
11345;BME280;5727;42.600;23.028;2022-10-16T12:27:02;94405.44;;;24.19;30.69
11345;BME280;5727;42.600;23.028;2022-10-16T12:29:34;94410.69;;;25.14;28.57
11345;BME280;5727;42.600;23.028;2022-10-16T12:32:03;94401.28;;;24.59;26.80
11345;BME280;5727;42.600;23.028;2022-10-16T12:34:37;94411.84;;;24.80;27.30
11345;BME280;5727;42.600;23.028;2022-10-16T12:37:14;94414.28;;;25.34;26.97
11345;BME280;5727;42.600;23.028;2022-10-16T12:39:45;94410.53;;;25.89;25.47
11345;BME280;5727;42.600;23.028;2022-10-16T12:42:22;94408.78;;;26.78;23.95
11345;BME280;5727;42.600;23.028;2022-10-16T12:44:51;94409.97;;;27.16;24.81
11345;BME280;5727;42.600;23.028;2022-10-16T12:47:23;94405.19;;;26.62;23.72
11345;BME280;5727;42.600;23.028;2022-10-16T12:49:52;94402.44;;;26.65;23.89
11345;BME280;5727;42.600;23.028;2022-10-16T12:52:28;94406.28;;;27.50;24.22
11345;BME280;5727;42.600;23.028;2022-10-16T12:54:57;94402.66;;;28.44;22.91
11345;BME280;5727;42.600;23.028;2022-10-16T12:57:38;94413.53;;;28.08;22.02
11345;BME280;5727;42.600;23.028;2022-10-16T13:00:18;94418.50;;;27.90;22.08
11345;BME280;5727;42.600;23.028;2022-10-16T13:06:14;94423.78;;;27.97;21.89
11345;BME280;5727;42.600;23.028;2022-10-16T13:09:08;94426.94;;;27.56;22.44
11345;BME280;5727;42.600;23.028;2022-10-16T13:11:51;94415.13;;;27.86;22.95
11345;BME280;5727;42.600;23.028;2022-10-16T13:14:44;94421.38;;;27.63;23.43
11345;BME280;5727;42.600;23.028;2022-10-16T13:17:23;94415.25;;;27.24;24.09
11345;BME280;5727;42.600;23.028;2022-10-16T13:20:00;94414.69;;;27.52;23.63
11345;BME280;5727;42.600;23.028;2022-10-16T13:22:33;94420.31;;;27.41;23.23
11345;BME280;5727;42.600;23.028;2022-10-16T13:25:17;94425.66;;;27.61;22.79
11345;BME280;5727;42.600;23.028;2022-10-16T13:27:53;94423.41;;;27.40;23.48